Time;durP1;ratioP1;P1;durP2;ratioP2;P2;SDS_P1;SDS_P2;PMS_P1;PMS_P2;Temp;Humidity;BMP_temperature;BMP_pressure;BME280_temperature;BME280_humidity;BME280_pressure;Samples;Min_cycle;Max_cycle;Signal;HPM_P1;HPM_P2
2021/12/08 00:01:01;;;;;;;12.05;1.90;;;17.60;99.90;;;;;;4991926;28;20112;-65
2021/12/08 00:03:30;;;;;;;6.25;1.58;;;17.60;99.90;;;;;;4993258;28;20109;-65
2021/12/08 00:05:58;;;;;;;11.48;2.03;;;17.70;99.90;;;;;;4992280;28;20037;-65
2021/12/08 00:08:30;;;;;;;6.18;1.90;;;17.80;99.90;;;;;;4992845;28;20037;-65
2021/12/08 00:13:29;;;;;;;6.20;1.00;;;18.00;99.90;;;;;;4992766;28;20023;-64
2021/12/08 00:16:00;;;;;;;7.15;1.95;;;18.10;99.90;;;;;;4975132;28;20042;-64
2021/12/08 00:18:32;;;;;;;8.20;2.10;;;18.20;99.90;;;;;;4974925;28;20019;-64
2021/12/08 00:21:03;;;;;;;12.60;1.83;;;18.30;99.90;;;;;;4990021;28;20475;-64
2021/12/08 00:23:31;;;;;;;5.30;1.20;;;18.30;99.90;;;;;;4992855;28;20033;-64
2021/12/08 00:25:59;;;;;;;7.03;1.95;;;18.30;99.90;;;;;;4989627;28;20029;-63
2021/12/08 00:28:27;;;;;;;6.38;1.88;;;18.50;99.90;;;;;;4991606;28;20029;-65
2021/12/08 00:30:59;;;;;;;6.80;1.42;;;18.70;99.90;;;;;;4991563;28;20022;-64
2021/12/08 00:33:28;;;;;;;10.82;1.58;;;18.90;99.90;;;;;;4992565;28;20077;-65
2021/12/08 00:35:58;;;;;;;8.93;1.48;;;18.80;99.90;;;;;;4991070;28;20112;-65
2021/12/08 00:38:26;;;;;;;8.52;1.67;;;18.80;99.90;;;;;;4993009;28;20014;-65
2021/12/08 00:40:55;;;;;;;5.50;1.38;;;18.70;99.90;;;;;;4992281;28;20617;-64
2021/12/08 00:43:24;;;;;;;4.45;1.17;;;18.90;99.90;;;;;;4991448;28;20025;-66
2021/12/08 00:45:52;;;;;;;7.63;1.98;;;18.90;99.90;;;;;;4992655;28;20034;-65
2021/12/08 00:48:21;;;;;;;5.75;1.13;;;18.90;99.90;;;;;;4990037;28;20022;-65
2021/12/08 00:50:49;;;;;;;5.85;2.17;;;18.80;99.90;;;;;;4992080;28;20033;-65
2021/12/08 00:53:17;;;;;;;6.78;1.55;;;18.70;99.90;;;;;;4992152;28;20383;-64
2021/12/08 00:55:45;;;;;;;5.63;1.45;;;18.60;99.90;;;;;;4992621;28;20035;-65
2021/12/08 00:58:13;;;;;;;3.38;1.20;;;18.50;99.90;;;;;;4995390;28;20487;-66
2021/12/08 01:00:45;;;;;;;5.63;1.48;;;18.50;99.90;;;;;;4989836;28;20191;-65
2021/12/08 01:03:15;;;;;;;7.60;1.73;;;18.50;99.90;;;;;;4995931;28;20098;-65
2021/12/08 01:05:47;;;;;;;3.90;1.27;;;18.50;99.90;;;;;;4993626;28;20031;-67
2021/12/08 01:08:16;;;;;;;8.52;1.90;;;18.40;99.90;;;;;;4990591;28;20535;-65
2021/12/08 01:10:46;;;;;;;10.27;1.38;;;18.40;99.90;;;;;;4995117;28;20106;-65
2021/12/08 01:13:15;;;;;;;3.80;0.90;;;18.40;99.90;;;;;;4995671;28;20519;-65
2021/12/08 01:15:48;;;;;;;6.63;0.93;;;18.40;99.90;;;;;;4993348;28;20507;-63
2021/12/08 01:18:17;;;;;;;9.00;1.30;;;18.40;99.90;;;;;;4995885;28;20460;-65
2021/12/08 01:20:46;;;;;;;11.35;1.73;;;18.20;99.90;;;;;;4996028;28;20113;-65
2021/12/08 01:23:14;;;;;;;6.38;0.88;;;18.10;99.90;;;;;;4995663;28;20015;-65
2021/12/08 01:25:42;;;;;;;9.35;1.10;;;18.30;99.90;;;;;;4993458;28;20030;-64
2021/12/08 01:28:10;;;;;;;4.35;0.85;;;18.20;99.90;;;;;;4995344;28;20027;-65
2021/12/08 01:30:39;;;;;;;6.07;1.08;;;18.10;99.90;;;;;;4995266;28;20019;-63
2021/12/08 01:33:07;;;;;;;8.30;1.33;;;18.00;99.90;;;;;;4995223;28;20110;-65
2021/12/08 01:35:35;;;;;;;8.90;1.75;;;18.00;99.90;;;;;;4994742;28;20050;-65
2021/12/08 01:38:04;;;;;;;7.43;1.17;;;18.00;99.90;;;;;;4994455;28;20018;-65
2021/12/08 01:40:32;;;;;;;5.72;1.67;;;18.00;99.90;;;;;;4995241;28;20027;-66
2021/12/08 01:43:02;;;;;;;4.32;1.00;;;18.00;99.90;;;;;;4988862;28;20500;-66
2021/12/08 01:48:20;;;;;;;6.13;1.00;;;18.00;99.90;;;;;;4992546;28;20137;-66
2021/12/08 01:50:55;;;;;;;5.90;1.05;;;18.00;99.90;;;;;;4994105;28;20041;-64
2021/12/08 01:53:24;;;;;;;6.25;1.80;;;17.80;99.90;;;;;;4984058;28;20026;-64
2021/12/08 01:55:52;;;;;;;7.30;1.33;;;17.80;99.90;;;;;;4984149;28;20031;-65
2021/12/08 01:58:20;;;;;;;2.80;0.82;;;17.80;99.90;;;;;;4987809;28;20030;-66
2021/12/08 02:00:52;;;;;;;8.80;1.65;;;17.90;99.90;;;;;;4992285;28;20033;-66
2021/12/08 02:03:22;;;;;;;5.25;1.13;;;17.80;99.90;;;;;;4990403;28;20081;-65
2021/12/08 02:05:50;;;;;;;5.20;1.27;;;17.90;99.90;;;;;;4994098;28;20065;-66
2021/12/08 02:08:19;;;;;;;3.67;1.20;;;17.80;99.90;;;;;;4994864;28;20105;-64
2021/12/08 02:10:47;;;;;;;8.20;1.50;;;17.80;99.90;;;;;;4991121;28;20044;-64
2021/12/08 02:13:16;;;;;;;9.60;1.30;;;17.80;99.90;;;;;;4990823;28;20062;-65
2021/12/08 02:15:44;;;;;;;4.28;1.08;;;17.90;99.90;;;;;;4995358;28;20070;-65
2021/12/08 02:18:14;;;;;;;7.28;1.67;;;17.80;99.90;;;;;;4993375;28;20490;-63
2021/12/08 02:20:47;;;;;;;5.80;1.42;;;17.80;99.90;;;;;;4991731;28;20034;-65
2021/12/08 02:23:17;;;;;;;7.10;1.92;;;17.80;99.90;;;;;;4993837;28;20065;-62
2021/12/08 02:25:46;;;;;;;6.55;1.50;;;17.80;99.90;;;;;;4993992;28;20022;-65
2021/12/08 02:28:14;;;;;;;3.40;1.30;;;17.60;99.90;;;;;;4993783;28;20026;-63
2021/12/08 02:30:47;;;;;;;5.60;1.30;;;17.60;99.90;;;;;;4992436;28;20030;-64
2021/12/08 02:49:51;;;;;;;8.10;2.03;;;17.70;99.90;;;;;;4985287;28;20031;-65
2021/12/08 02:52:19;;;;;;;9.35;2.50;;;17.80;99.90;;;;;;4983515;28;20464;-64
2021/12/08 02:54:49;;;;;;;8.10;1.50;;;17.60;99.90;;;;;;4984637;28;20117;-65
2021/12/08 02:57:24;;;;;;;7.85;1.85;;;17.50;99.90;;;;;;4985543;28;20018;-62
2021/12/08 02:59:52;;;;;;;3.97;1.63;;;17.40;99.90;;;;;;4985196;28;20037;-65
2021/12/08 03:02:22;;;;;;;11.63;2.40;;;17.40;99.90;;;;;;4991220;28;20049;-63
2021/12/08 03:04:50;;;;;;;7.40;2.28;;;17.40;99.90;;;;;;4994139;28;20442;-65
2021/12/08 03:07:18;;;;;;;11.43;1.83;;;17.40;99.90;;;;;;4993896;28;20479;-65
2021/12/08 03:09:46;;;;;;;11.93;2.85;;;17.50;99.90;;;;;;4994062;28;20157;-64
2021/12/08 03:12:14;;;;;;;11.27;2.00;;;17.50;99.90;;;;;;4994031;28;20038;-64
2021/12/08 03:14:41;;;;;;;20.52;2.38;;;17.50;99.90;;;;;;4991380;28;20027;-64
2021/12/08 03:17:10;;;;;;;6.30;2.20;;;17.40;99.90;;;;;;4993940;28;20157;-64
2021/12/08 03:19:38;;;;;;;8.07;1.83;;;17.30;99.90;;;;;;4992812;28;20030;-63
2021/12/08 03:22:10;;;;;;;13.00;2.17;;;17.40;99.90;;;;;;4993247;28;20015;-64
2021/12/08 03:24:42;;;;;;;10.27;1.92;;;17.30;99.90;;;;;;4993910;28;20026;-66
2021/12/08 03:27:16;;;;;;;9.57;1.88;;;17.30;99.90;;;;;;4993840;28;20109;-66
2021/12/08 03:30:11;;;;;;;7.97;1.95;;;17.30;99.90;;;;;;4984561;28;20480;-64
2021/12/08 03:32:39;;;;;;;16.88;2.20;;;17.40;99.90;;;;;;4983956;28;20133;-64
2021/12/08 03:35:15;;;;;;;8.23;1.73;;;17.50;99.90;;;;;;4992104;28;20096;-64
2021/12/08 03:37:45;;;;;;;12.35;2.58;;;17.50;99.90;;;;;;4992442;28;20018;-65
2021/12/08 03:40:24;;;;;;;12.63;2.38;;;17.40;99.90;;;;;;4991996;28;20034;-64
2021/12/08 03:42:58;;;;;;;14.43;2.13;;;17.50;99.90;;;;;;4990425;28;20059;-65
2021/12/08 03:45:33;;;;;;;8.90;2.10;;;17.50;99.90;;;;;;4989482;28;20030;-65
2021/12/08 03:48:09;;;;;;;13.75;1.67;;;17.50;99.90;;;;;;4987840;28;20021;-63
2021/12/08 03:50:39;;;;;;;7.80;2.85;;;17.40;99.90;;;;;;4992075;28;20419;-65
2021/12/08 03:53:09;;;;;;;8.85;1.95;;;17.30;99.90;;;;;;4993311;28;20050;-65
2021/12/08 03:55:37;;;;;;;8.45;1.70;;;17.20;99.90;;;;;;4993111;28;20034;-64
2021/12/08 03:58:04;;;;;;;9.02;1.85;;;17.20;99.90;;;;;;4992708;28;20023;-64
2021/12/08 04:00:33;;;;;;;11.35;2.45;;;17.10;99.90;;;;;;4990688;28;20027;-64
2021/12/08 04:03:04;;;;;;;10.25;2.25;;;17.10;99.90;;;;;;4993329;28;20045;-63
2021/12/08 04:05:43;;;;;;;20.58;3.17;;;17.00;99.90;;;;;;4989942;28;20101;-65
2021/12/08 04:08:29;;;;;;;5.75;2.10;;;17.00;99.90;;;;;;4992260;28;20375;-64
2021/12/08 04:10:59;;;;;;;19.63;2.67;;;17.00;99.90;;;;;;4993739;28;20094;-65
2021/12/08 04:13:35;;;;;;;14.48;3.53;;;17.00;99.90;;;;;;4991682;28;20034;-64
2021/12/08 04:16:03;;;;;;;10.10;2.97;;;17.00;99.90;;;;;;4991782;28;20042;-64
2021/12/08 04:18:32;;;;;;;15.35;3.83;;;16.90;99.90;;;;;;4992614;28;20095;-64
2021/12/08 04:21:01;;;;;;;10.43;2.45;;;16.90;99.90;;;;;;4992548;28;20534;-65
2021/12/08 04:23:36;;;;;;;9.38;2.15;;;16.90;99.90;;;;;;4992518;28;20105;-64
2021/12/08 04:26:10;;;;;;;14.65;2.50;;;16.90;99.90;;;;;;4992609;28;20092;-64
2021/12/08 04:28:38;;;;;;;14.70;2.53;;;17.00;99.90;;;;;;4991456;28;20018;-65
2021/12/08 04:31:20;;;;;;;15.40;3.08;;;17.00;99.90;;;;;;4994784;28;20029;-65
2021/12/08 04:33:55;;;;;;;12.38;2.42;;;17.00;99.90;;;;;;4995118;28;20487;-65
2021/12/08 04:36:24;;;;;;;;;;;17.00;99.90;;;;;;4996543;28;20479;-65
2021/12/08 04:38:57;;;;;;;11.68;2.20;;;16.90;99.90;;;;;;4992671;28;19992;-64
2021/12/08 04:41:35;;;;;;;11.57;2.45;;;16.80;99.90;;;;;;4996597;28;20483;-64
2021/12/08 04:44:22;;;;;;;7.80;2.45;;;16.90;99.90;;;;;;4994305;28;20057;-65
2021/12/08 04:50:13;;;;;;;17.90;3.05;;;16.90;99.90;;;;;;4996614;28;20475;-64
2021/12/08 05:01:15;;;;;;;14.85;2.97;;;16.60;99.90;;;;;;4995852;28;20509;-63
2021/12/08 05:09:34;;;;;;;18.55;2.85;;;16.40;99.90;;;;;;4996243;28;20077;-65
2021/12/08 05:12:06;;;;;;;13.00;2.13;;;16.30;99.90;;;;;;4994635;28;20043;-64
2021/12/08 05:14:47;;;;;;;12.70;3.08;;;16.20;99.90;;;;;;4993923;28;20042;-65
2021/12/08 05:17:44;;;;;;;16.30;3.20;;;16.10;99.90;;;;;;4995783;28;20098;-63
2021/12/08 05:20:20;;;;;;;14.70;2.13;;;16.10;99.90;;;;;;4995110;28;20113;-64
2021/12/08 05:23:03;;;;;;;16.20;3.05;;;16.20;99.90;;;;;;4994389;28;20527;-64
2021/12/08 05:25:34;;;;;;;27.00;3.10;;;16.10;99.90;;;;;;4994808;28;20037;-63
2021/12/08 05:28:05;;;;;;;11.48;2.42;;;16.10;99.90;;;;;;4995747;28;20022;-63
2021/12/08 05:30:45;;;;;;;10.68;2.97;;;16.10;99.90;;;;;;4995426;28;20026;-64
2021/12/08 05:33:13;;;;;;;16.88;2.53;;;16.10;99.90;;;;;;4995295;28;20495;-64
2021/12/08 05:35:44;;;;;;;20.48;2.80;;;16.00;99.90;;;;;;4995296;28;20487;-63
2021/12/08 05:38:14;;;;;;;12.80;1.85;;;15.90;99.90;;;;;;4995458;28;20018;-64
2021/12/08 05:40:48;;;;;;;17.42;2.50;;;15.90;99.90;;;;;;4993797;28;20029;-63
2021/12/08 05:43:16;;;;;;;16.17;2.92;;;15.90;99.90;;;;;;4980794;28;20019;-64
2021/12/08 05:45:45;;;;;;;13.13;3.05;;;15.80;99.90;;;;;;4992070;28;20019;-64
2021/12/08 05:48:13;;;;;;;15.50;2.67;;;15.90;99.90;;;;;;4993221;28;20034;-65
2021/12/08 05:50:52;;;;;;;11.80;2.40;;;15.90;99.90;;;;;;4992099;28;20126;-65
2021/12/08 05:53:21;;;;;;;14.38;2.97;;;15.90;99.90;;;;;;4985986;28;20030;-66
2021/12/08 05:55:50;;;;;;;8.25;2.35;;;15.80;99.90;;;;;;4993727;28;20073;-63
2021/12/08 05:58:20;;;;;;;7.70;2.03;;;15.80;99.90;;;;;;4991591;28;20022;-65
2021/12/08 06:00:59;;;;;;;12.88;2.63;;;15.70;99.90;;;;;;4994346;28;20033;-66
2021/12/08 06:03:27;;;;;;;9.77;2.42;;;15.70;99.90;;;;;;4994144;28;20030;-66
2021/12/08 06:05:57;;;;;;;7.95;1.65;;;15.60;99.90;;;;;;4994550;28;20486;-67
2021/12/08 06:08:27;;;;;;;14.23;2.92;;;15.60;99.90;;;;;;4993923;28;20523;-67
2021/12/08 06:10:57;;;;;;;17.77;2.53;;;15.60;99.90;;;;;;4988117;28;20026;-64
2021/12/08 06:13:25;;;;;;;5.13;1.50;;;15.50;99.90;;;;;;4992344;28;20030;-64
2021/12/08 06:15:53;;;;;;;15.07;1.95;;;15.50;99.90;;;;;;4990386;28;20444;-67
2021/12/08 06:18:24;;;;;;;13.15;2.13;;;15.50;99.90;;;;;;4992553;28;20014;-67
2021/12/08 06:20:56;;;;;;;11.07;2.60;;;15.40;99.90;;;;;;4992054;28;20022;-64
2021/12/08 06:23:25;;;;;;;15.55;3.00;;;15.40;99.90;;;;;;4992796;28;20023;-64
2021/12/08 06:25:52;;;;;;;14.40;2.47;;;15.40;99.90;;;;;;4990534;28;20096;-67
2021/12/08 06:28:20;;;;;;;7.80;2.10;;;15.40;99.90;;;;;;4993748;28;20019;-69
2021/12/08 06:30:49;;;;;;;16.00;3.55;;;15.40;99.90;;;;;;4989522;28;20120;-63
2021/12/08 06:33:20;;;;;;;9.63;3.17;;;15.40;99.90;;;;;;4991538;28;20052;-63
2021/12/08 06:35:52;;;;;;;10.82;2.30;;;15.50;99.90;;;;;;4988760;28;20034;-65
2021/12/08 06:38:22;;;;;;;5.35;2.13;;;15.50;99.90;;;;;;4990190;28;20141;-65
2021/12/08 06:40:55;;;;;;;7.55;1.90;;;15.50;99.90;;;;;;4991343;28;20504;-62
2021/12/08 06:43:45;;;;;;;9.60;2.25;;;15.60;99.90;;;;;;4992224;28;20451;-63
2021/12/08 06:46:14;;;;;;;11.95;2.72;;;15.40;99.90;;;;;;4993425;28;20484;-62
2021/12/08 06:48:48;;;;;;;9.38;3.10;;;15.40;99.90;;;;;;4993779;28;20491;-62
2021/12/08 06:51:25;;;;;;;8.20;2.28;;;15.50;99.90;;;;;;4993807;28;20110;-64
2021/12/08 06:53:59;;;;;;;8.40;1.98;;;15.50;99.90;;;;;;4991862;28;20084;-66
2021/12/08 06:56:32;;;;;;;8.25;1.88;;;15.40;99.90;;;;;;4992699;28;20045;-66
2021/12/08 06:59:04;;;;;;;8.15;2.00;;;15.40;99.90;;;;;;4992906;28;20494;-66
2021/12/08 07:01:57;;;;;;;7.07;2.45;;;15.40;99.90;;;;;;4992817;28;20049;-63
2021/12/08 07:04:41;;;;;;;4.85;1.48;;;15.50;99.90;;;;;;4992324;28;20034;-62
2021/12/08 07:07:19;;;;;;;7.95;1.45;;;15.50;99.90;;;;;;4989808;28;20026;-65
2021/12/08 07:10:01;;;;;;;11.73;2.03;;;15.40;99.90;;;;;;4991237;28;20022;-61
2021/12/08 07:12:36;;;;;;;9.35;2.33;;;15.40;99.90;;;;;;4992151;28;20019;-61
2021/12/08 07:15:16;;;;;;;8.18;2.05;;;15.40;99.90;;;;;;4992622;28;20050;-65
2021/12/08 07:17:50;;;;;;;8.18;2.03;;;15.30;99.90;;;;;;4976394;28;20031;-62
2021/12/08 07:20:43;;;;;;;7.32;2.15;;;15.30;99.90;;;;;;4979488;28;20480;-61
2021/12/08 07:23:36;;;;;;;10.13;2.70;;;15.40;99.90;;;;;;4991090;28;20027;-61
2021/12/08 07:26:08;;;;;;;10.57;2.08;;;15.40;99.90;;;;;;4991498;28;20034;-61
2021/12/08 07:28:39;;;;;;;7.22;1.50;;;15.40;99.90;;;;;;4991707;28;20094;-61
2021/12/08 07:31:14;;;;;;;8.60;1.50;;;15.40;99.90;;;;;;4990662;28;20034;-60
2021/12/08 07:33:43;;;;;;;11.18;2.80;;;15.40;99.90;;;;;;4991900;28;20444;-61
2021/12/08 07:36:15;;;;;;;9.48;2.00;;;15.40;99.90;;;;;;4990052;28;20117;-61
2021/12/08 07:38:47;;;;;;;4.90;2.03;;;15.40;99.90;;;;;;4992430;28;20435;-61
2021/12/08 07:41:18;;;;;;;5.30;2.17;;;15.50;99.90;;;;;;4992239;28;20450;-61
2021/12/08 07:43:51;;;;;;;10.48;2.10;;;15.50;99.90;;;;;;4992361;28;20439;-61
2021/12/08 07:46:31;;;;;;;14.48;2.72;;;15.50;99.90;;;;;;4992347;28;20022;-65
2021/12/08 07:49:07;;;;;;;6.03;1.83;;;15.50;99.90;;;;;;4992267;28;20011;-61
2021/12/08 07:51:44;;;;;;;4.70;2.05;;;15.50;99.90;;;;;;4992258;28;20032;-61
2021/12/08 07:54:13;;;;;;;5.88;1.70;;;15.50;99.90;;;;;;4992026;28;20026;-65
2021/12/08 07:56:46;;;;;;;7.50;1.95;;;15.50;99.90;;;;;;4991641;28;20093;-61
2021/12/08 07:59:17;;;;;;;6.10;1.70;;;15.50;99.90;;;;;;4992114;28;20026;-61
2021/12/08 08:01:51;;;;;;;7.07;2.75;;;15.50;99.90;;;;;;4991676;28;20047;-60
2021/12/08 08:04:21;;;;;;;8.50;2.20;;;15.40;99.90;;;;;;4991044;28;20023;-61
2021/12/08 08:06:57;;;;;;;7.45;1.50;;;15.40;99.90;;;;;;4995275;28;20053;-61
2021/12/08 08:09:40;;;;;;;6.25;1.75;;;15.50;99.90;;;;;;4995482;28;20026;-62
2021/12/08 08:12:14;;;;;;;5.95;1.45;;;15.50;99.90;;;;;;4994954;28;20042;-65
2021/12/08 08:14:49;;;;;;;7.10;2.45;;;15.50;99.90;;;;;;4995363;28;20041;-66
2021/12/08 08:17:22;;;;;;;6.32;2.13;;;15.50;99.90;;;;;;4995262;28;20104;-63
2021/12/08 08:19:50;;;;;;;7.72;2.45;;;15.50;99.90;;;;;;4995093;28;20061;-62
2021/12/08 08:22:24;;;;;;;5.53;1.85;;;15.50;99.90;;;;;;4995368;28;20109;-67
2021/12/08 08:24:54;;;;;;;8.10;2.10;;;15.40;99.90;;;;;;4995831;28;20109;-65
2021/12/08 08:27:25;;;;;;;7.57;2.33;;;15.50;99.90;;;;;;4995308;28;20018;-61
2021/12/08 08:29:54;;;;;;;7.30;2.80;;;15.50;99.90;;;;;;4994971;28;20058;-62
2021/12/08 08:32:30;;;;;;;7.55;3.50;;;15.40;99.90;;;;;;4994551;28;20022;-65
2021/12/08 08:35:18;;;;;;;7.72;3.85;;;15.40;99.90;;;;;;4995296;28;20026;-62
2021/12/08 08:37:48;;;;;;;17.17;6.32;;;15.40;99.90;;;;;;4995210;28;20042;-66
2021/12/08 08:40:32;;;;;;;12.77;6.55;;;15.30;99.90;;;;;;4995232;28;20055;-61
2021/12/08 08:43:01;;;;;;;9.77;6.38;;;15.30;99.90;;;;;;4994821;28;20022;-62
2021/12/08 08:45:44;;;;;;;9.73;5.80;;;15.30;99.90;;;;;;4993955;28;20027;-62
2021/12/08 08:48:16;;;;;;;16.35;7.30;;;15.30;99.90;;;;;;4994430;28;20022;-62
2021/12/08 08:51:01;;;;;;;14.50;6.53;;;15.30;99.90;;;;;;4996585;28;20049;-63
2021/12/08 08:53:37;;;;;;;16.38;6.70;;;15.30;99.90;;;;;;4994307;28;20046;-65
2021/12/08 08:56:19;;;;;;;18.58;5.85;;;15.30;99.90;;;;;;4994789;28;20050;-65
2021/12/08 08:58:52;;;;;;;9.05;5.30;;;15.30;99.90;;;;;;4994679;28;20476;-66
2021/12/08 09:01:47;;;;;;;16.77;5.80;;;15.40;99.90;;;;;;4994218;28;20064;-66
2021/12/08 09:04:24;;;;;;;9.38;5.47;;;15.40;99.90;;;;;;4994069;28;20041;-66
2021/12/08 09:06:57;;;;;;;20.70;6.15;;;15.40;99.90;;;;;;4994617;28;20033;-61
2021/12/08 09:09:28;;;;;;;31.65;6.00;;;15.40;99.90;;;;;;4994414;28;20022;-61
2021/12/08 09:12:05;;;;;;;24.35;6.97;;;15.40;99.90;;;;;;4992968;28;20018;-63
2021/12/08 09:14:41;;;;;;;11.38;6.38;;;15.50;99.90;;;;;;4992811;28;20038;-61
2021/12/08 09:17:08;;;;;;;;;;;15.60;99.90;;;;;;4996457;28;20023;-62
2021/12/08 09:19:43;;;;;;;11.88;4.75;;;15.50;99.90;;;;;;4993985;28;19909;-62
2021/12/08 09:22:10;;;;;;;;;;;15.50;99.90;;;;;;4994446;28;20022;-63
2021/12/08 09:24:46;;;;;;;16.63;4.28;;;15.60;99.90;;;;;;4993807;28;19916;-62
2021/12/08 09:27:19;;;;;;;9.25;3.80;;;15.50;99.90;;;;;;4994008;28;20033;-61
2021/12/08 09:29:57;;;;;;;11.30;3.83;;;15.50;99.90;;;;;;4993378;28;20018;-66
2021/12/08 09:32:34;;;;;;;20.17;4.22;;;15.50;99.90;;;;;;4993784;28;20116;-63
2021/12/08 09:35:25;;;;;;;6.85;3.25;;;15.40;99.90;;;;;;4993984;28;20039;-64
2021/12/08 09:38:16;;;;;;;18.50;4.50;;;15.40;99.90;;;;;;4994017;28;20101;-65
2021/12/08 09:41:00;;;;;;;14.18;4.28;;;15.40;99.90;;;;;;4994092;28;20399;-66
2021/12/08 09:43:40;;;;;;;13.38;4.40;;;15.40;99.90;;;;;;4994579;28;20024;-65
2021/12/08 09:46:22;;;;;;;13.45;4.65;;;15.40;99.90;;;;;;4994076;28;20030;-65
2021/12/08 09:48:51;;;;;;;18.98;4.20;;;15.50;99.90;;;;;;4993223;28;20035;-66
2021/12/08 09:51:22;;;;;;;12.82;3.78;;;15.50;99.90;;;;;;4993894;28;20038;-64
2021/12/08 09:53:50;;;;;;;21.65;4.78;;;15.50;99.90;;;;;;4993476;28;20022;-65
2021/12/08 09:56:21;;;;;;;21.52;3.65;;;15.50;99.90;;;;;;4993890;28;20121;-66
2021/12/08 09:59:09;;;;;;;12.70;5.10;;;15.50;99.90;;;;;;4993550;28;20483;-65
2021/12/08 10:01:41;;;;;;;14.70;3.92;;;15.40;99.90;;;;;;4993631;28;20070;-62
2021/12/08 10:04:11;;;;;;;8.00;3.40;;;15.50;99.90;;;;;;4993755;28;20181;-64
2021/12/08 10:06:41;;;;;;;12.63;4.25;;;15.60;99.90;;;;;;4993148;28;20053;-62
2021/12/08 10:09:09;;;;;;;14.27;4.95;;;15.60;99.90;;;;;;4993428;28;20033;-62
2021/12/08 10:11:38;;;;;;;90.80;6.68;;;15.70;99.90;;;;;;4993381;28;20085;-62
2021/12/08 10:14:06;;;;;;;11.32;4.25;;;15.50;99.90;;;;;;4993225;28;20117;-62
2021/12/08 10:16:35;;;;;;;15.88;4.03;;;15.50;99.90;;;;;;4993063;28;20038;-62
2021/12/08 10:19:05;;;;;;;10.65;4.20;;;15.60;99.90;;;;;;4993176;28;20072;-63
2021/12/08 10:21:39;;;;;;;12.77;4.40;;;15.40;99.90;;;;;;4992885;28;20082;-62
2021/12/08 10:24:24;;;;;;;21.35;4.03;;;15.50;99.90;;;;;;4993672;28;20026;-62
2021/12/08 10:27:01;;;;;;;20.67;4.35;;;15.50;99.90;;;;;;4993559;28;20435;-66
2021/12/08 10:29:30;;;;;;;13.02;3.08;;;15.40;99.90;;;;;;4993227;28;20026;-66
2021/12/08 10:32:00;;;;;;;19.50;4.03;;;15.40;99.90;;;;;;4992035;28;20097;-67
2021/12/08 10:34:36;;;;;;;15.38;3.25;;;15.40;99.90;;;;;;4993331;28;20026;-62
2021/12/08 10:37:10;;;;;;;16.27;3.55;;;15.30;99.90;;;;;;4990985;28;20045;-64
2021/12/08 10:39:48;;;;;;;14.82;3.22;;;15.30;99.90;;;;;;4992402;28;20026;-66
2021/12/08 10:42:18;;;;;;;11.82;2.88;;;15.40;99.90;;;;;;4992303;28;20034;-66
2021/12/08 10:45:02;;;;;;;13.60;3.05;;;15.50;99.90;;;;;;4992732;28;20026;-66
2021/12/08 10:47:32;;;;;;;17.15;3.55;;;15.50;99.90;;;;;;4991651;28;20094;-67
2021/12/08 10:55:56;;;;;;;7.57;3.03;;;15.60;99.90;;;;;;4991388;28;20077;-66
2021/12/08 10:58:34;;;;;;;16.50;3.85;;;15.60;99.90;;;;;;4992284;28;20097;-64
2021/12/08 11:01:22;;;;;;;10.82;3.60;;;15.70;99.90;;;;;;4990715;28;20054;-66
2021/12/08 11:03:58;;;;;;;8.90;3.10;;;15.70;99.90;;;;;;4992424;28;20058;-65
2021/12/08 11:06:34;;;;;;;11.43;3.42;;;15.70;99.90;;;;;;4992404;28;20392;-66
2021/12/08 11:09:04;;;;;;;14.23;4.07;;;15.70;99.90;;;;;;4992243;28;20388;-63
2021/12/08 11:11:39;;;;;;;11.25;3.33;;;15.80;99.90;;;;;;4992130;28;20378;-65
2021/12/08 11:14:07;;;;;;;12.25;3.47;;;15.70;99.90;;;;;;4990119;28;20030;-62
2021/12/08 11:16:37;;;;;;;9.98;2.90;;;15.70;99.90;;;;;;4992283;28;20085;-62
2021/12/08 11:19:19;;;;;;;11.82;2.95;;;15.70;99.90;;;;;;4991034;28;20046;-62
2021/12/08 11:21:55;;;;;;;6.93;3.72;;;15.70;99.90;;;;;;4991994;28;20022;-67
2021/12/08 11:24:34;;;;;;;12.60;3.75;;;15.70;99.90;;;;;;4989836;28;20027;-66
2021/12/08 11:27:07;;;;;;;13.43;4.22;;;15.80;99.90;;;;;;4989713;28;20081;-66
2021/12/08 11:29:42;;;;;;;13.15;2.65;;;15.80;99.90;;;;;;4991693;28;20054;-65
2021/12/08 11:32:18;;;;;;;10.55;3.50;;;15.70;99.90;;;;;;4991770;28;20027;-63
2021/12/08 11:34:51;;;;;;;4.80;1.80;;;15.80;99.90;;;;;;4989988;28;20129;-62
2021/12/08 11:37:22;;;;;;;7.28;2.53;;;15.80;99.90;;;;;;4991736;28;20026;-65
2021/12/08 11:39:55;;;;;;;8.68;2.92;;;15.80;99.90;;;;;;4991140;28;20038;-63
2021/12/08 11:42:26;;;;;;;13.25;2.83;;;15.80;99.90;;;;;;4991454;28;20100;-62
2021/12/08 11:44:58;;;;;;;9.82;2.83;;;15.80;99.90;;;;;;4991746;28;20719;-62
2021/12/08 11:47:33;;;;;;;7.93;2.70;;;15.80;99.90;;;;;;4989898;28;20109;-62
2021/12/08 11:50:14;;;;;;;16.50;3.42;;;15.80;99.90;;;;;;4989786;28;20046;-64
2021/12/08 11:52:42;;;;;;;9.52;2.50;;;15.80;99.90;;;;;;4990558;28;20129;-66
2021/12/08 11:55:14;;;;;;;10.13;2.72;;;15.80;99.90;;;;;;4990679;28;20050;-65
2021/12/08 11:57:49;;;;;;;8.82;3.00;;;15.80;99.90;;;;;;4988179;28;20030;-65
2021/12/08 12:00:22;;;;;;;7.40;2.67;;;15.80;99.90;;;;;;4991701;28;20483;-65
2021/12/08 12:02:59;;;;;;;9.90;2.72;;;15.80;99.90;;;;;;4990195;28;20046;-65
2021/12/08 12:05:35;;;;;;;10.02;3.00;;;15.80;99.90;;;;;;4990911;28;20026;-64
2021/12/08 12:08:06;;;;;;;10.27;2.92;;;15.80;99.90;;;;;;4991107;28;20018;-63
2021/12/08 12:10:39;;;;;;;7.43;2.50;;;15.80;99.90;;;;;;4993466;28;20446;-64
2021/12/08 12:13:08;;;;;;;7.30;3.20;;;15.80;99.90;;;;;;4991464;28;20022;-65
2021/12/08 12:15:40;;;;;;;11.05;3.33;;;15.70;99.90;;;;;;4993342;28;20723;-65
2021/12/08 12:18:09;;;;;;;6.88;2.78;;;15.70;99.90;;;;;;4993354;28;20097;-64
2021/12/08 12:20:49;;;;;;;9.73;2.97;;;15.60;99.90;;;;;;4993249;28;20113;-65
2021/12/08 12:23:40;;;;;;;9.15;3.53;;;15.60;99.90;;;;;;4993233;28;20018;-64
2021/12/08 12:26:44;;;;;;;26.60;3.83;;;15.50;99.90;;;;;;4991533;28;20022;-63
2021/12/08 12:29:36;;;;;;;6.80;3.80;;;15.60;99.90;;;;;;5003040;28;20114;-62
2021/12/08 12:32:17;;;;;;;17.55;3.90;;;15.50;99.90;;;;;;4993545;28;20038;-61
2021/12/08 12:34:45;;;;;;;30.88;5.05;;;15.50;99.90;;;;;;4993689;28;20134;-63
2021/12/08 12:37:35;;;;;;;15.20;3.33;;;15.50;99.90;;;;;;4993727;28;20026;-63
2021/12/08 12:40:10;;;;;;;14.10;4.32;;;15.50;99.90;;;;;;4993915;28;20037;-66
2021/12/08 12:43:04;;;;;;;15.30;4.40;;;15.50;99.90;;;;;;4993562;28;20029;-65
2021/12/08 12:45:43;;;;;;;18.35;5.00;;;15.50;99.90;;;;;;4993614;28;20031;-61
2021/12/08 12:48:17;;;;;;;10.02;3.88;;;15.40;99.90;;;;;;4993848;28;20030;-61
2021/12/08 12:50:57;;;;;;;12.02;4.40;;;15.40;99.90;;;;;;4993703;28;20080;-65
2021/12/08 12:53:39;;;;;;;12.13;4.38;;;15.40;99.90;;;;;;4996778;28;20027;-66
2021/12/08 12:56:09;;;;;;;13.45;4.85;;;15.40;99.90;;;;;;4997195;28;20480;-65
2021/12/08 12:58:46;;;;;;;15.15;4.20;;;15.40;99.90;;;;;;4997210;28;20058;-66
2021/12/08 13:01:37;;;;;;;17.00;5.20;;;15.40;99.90;;;;;;4996811;28;20503;-66
2021/12/08 13:04:16;;;;;;;11.70;4.22;;;15.40;99.90;;;;;;4997037;28;20045;-65
2021/12/08 13:06:47;;;;;;;16.20;4.95;;;15.40;99.90;;;;;;4997090;28;20114;-62
2021/12/08 13:09:35;;;;;;;17.98;5.15;;;15.40;99.90;;;;;;4996949;28;20547;-67
2021/12/08 13:12:36;;;;;;;13.57;5.00;;;15.30;99.90;;;;;;4996955;28;20030;-66
2021/12/08 13:15:19;;;;;;;15.50;4.47;;;15.40;99.90;;;;;;4996794;28;20045;-66
2021/12/08 13:18:14;;;;;;;26.75;5.18;;;15.50;99.90;;;;;;4996672;28;20037;-65
2021/12/08 13:20:58;;;;;;;78.43;6.32;;;15.40;99.90;;;;;;4996625;28;20053;-65
2021/12/08 13:23:30;;;;;;;16.17;4.88;;;15.40;99.90;;;;;;4996832;28;20100;-66
2021/12/08 13:28:32;;;;;;;29.77;6.63;;;15.40;99.90;;;;;;4996505;28;20387;-66
2021/12/08 13:31:38;;;;;;;17.17;5.45;;;15.30;99.90;;;;;;4996506;28;20033;-64
2021/12/08 13:34:10;;;;;;;20.48;5.45;;;15.40;99.90;;;;;;4996468;28;20034;-63
2021/12/08 13:36:46;;;;;;;17.67;4.65;;;15.40;99.90;;;;;;4996584;28;20064;-65
2021/12/08 13:39:28;;;;;;;11.32;4.90;;;15.30;99.90;;;;;;4996346;28;20054;-66
2021/12/08 13:41:56;;;;;;;22.27;5.22;;;15.30;99.90;;;;;;4996210;28;20471;-66
2021/12/08 13:44:34;;;;;;;15.75;5.43;;;15.30;99.90;;;;;;4996438;28;20030;-65
2021/12/08 13:47:22;;;;;;;12.48;4.45;;;15.30;99.90;;;;;;4996425;28;20031;-67
2021/12/08 13:49:57;;;;;;;18.60;5.53;;;15.30;99.90;;;;;;4996218;28;20116;-64
2021/12/08 13:52:28;;;;;;;16.33;4.85;;;15.30;99.90;;;;;;4996310;28;20149;-66
2021/12/08 13:54:58;;;;;;;12.82;4.82;;;15.30;99.90;;;;;;4996124;28;20042;-65
2021/12/08 13:57:32;;;;;;;19.35;5.32;;;15.20;99.90;;;;;;4995900;28;20027;-66
2021/12/08 14:00:08;;;;;;;14.68;4.10;;;15.20;99.90;;;;;;4994203;28;20037;-65
2021/12/08 14:02:38;;;;;;;23.27;5.63;;;15.20;99.90;;;;;;4975755;28;20051;-65
2021/12/08 14:05:06;;;;;;;22.17;4.93;;;15.10;99.90;;;;;;4975617;28;20037;-66